Time;durP1;ratioP1;P1;durP2;ratioP2;P2;SDS_P1;SDS_P2;PMS_P1;PMS_P2;Temp;Humidity;BMP_temperature;BMP_pressure;BME280_temperature;BME280_humidity;BME280_pressure;Samples;Min_cycle;Max_cycle;Signal;HPM_P1;HPM_P2
2021/04/06 00:00:00;;;;;;;4.65;1.88;;;15.20;94.60;;;;;;5071230;28;20055;-60
2021/04/06 00:02:27;;;;;;;4.50;1.58;;;15.20;94.50;;;;;;5068092;28;20447;-60
2021/04/06 00:04:57;;;;;;;7.07;1.42;;;15.20;94.70;;;;;;5067496;28;20484;-60
2021/04/06 00:07:24;;;;;;;4.72;1.67;;;15.20;94.60;;;;;;5075911;28;20024;-60
2021/04/06 00:10:07;;;;;;;4.72;1.70;;;15.20;94.60;;;;;;5075695;28;20062;-60
2021/04/06 00:12:34;;;;;;;4.22;1.60;;;15.10;95.00;;;;;;5075484;28;20510;-61
2021/04/06 00:15:01;;;;;;;4.70;1.80;;;15.10;95.00;;;;;;5061524;28;20096;-61
2021/04/06 00:17:27;;;;;;;7.10;1.83;;;15.10;95.50;;;;;;5055505;28;20032;-61
2021/04/06 00:19:55;;;;;;;10.90;1.58;;;15.10;96.10;;;;;;5066158;28;20021;-60
2021/04/06 00:22:22;;;;;;;3.70;1.60;;;15.10;96.00;;;;;;5068032;28;20490;-61
2021/04/06 00:24:50;;;;;;;4.07;1.58;;;15.10;96.10;;;;;;5075265;28;20373;-60
2021/04/06 00:27:27;;;;;;;6.57;1.92;;;15.00;96.00;;;;;;5061508;28;20112;-60
2021/04/06 00:29:57;;;;;;;7.60;1.58;;;15.00;96.00;;;;;;5055300;28;20465;-61
2021/04/06 00:32:26;;;;;;;7.35;1.65;;;15.00;96.00;;;;;;5065543;28;20029;-61
2021/04/06 00:34:56;;;;;;;4.82;1.55;;;15.00;96.00;;;;;;5058314;28;20021;-61
2021/04/06 00:37:22;;;;;;;4.53;1.42;;;14.90;96.00;;;;;;5055083;28;20028;-60
2021/04/06 00:39:55;;;;;;;4.65;1.80;;;14.90;96.30;;;;;;5055242;28;20036;-61
2021/04/06 00:42:25;;;;;;;9.60;2.20;;;14.90;96.40;;;;;;5066639;28;20025;-60
2021/04/06 00:45:02;;;;;;;6.20;1.67;;;14.90;96.40;;;;;;5072980;28;20028;-61
2021/04/06 00:47:29;;;;;;;5.15;1.65;;;14.90;96.30;;;;;;5075022;28;20032;-61
2021/04/06 00:50:05;;;;;;;5.22;1.80;;;14.90;96.50;;;;;;5061332;28;20090;-61
2021/04/06 00:52:32;;;;;;;4.60;1.67;;;14.90;96.40;;;;;;5063341;28;20032;-60
2021/04/06 00:54:58;;;;;;;3.92;1.30;;;14.80;96.30;;;;;;5054744;28;20032;-59
2021/04/06 00:57:32;;;;;;;5.60;1.80;;;14.90;96.30;;;;;;5058911;28;20032;-59
2021/04/06 01:00:17;;;;;;;6.82;1.77;;;14.80;96.40;;;;;;5067246;28;20029;-61
2021/04/06 01:03:12;;;;;;;5.63;1.58;;;14.80;96.30;;;;;;5072802;28;20033;-61
2021/04/06 01:06:02;;;;;;;4.43;1.48;;;14.80;96.40;;;;;;5054658;28;20037;-61
2021/04/06 01:08:29;;;;;;;3.05;1.38;;;14.70;96.40;;;;;;5054660;28;20473;-61
2021/04/06 01:10:56;;;;;;;4.65;1.55;;;14.70;96.60;;;;;;5054320;28;20538;-60
2021/04/06 01:13:24;;;;;;;2.70;1.40;;;14.70;96.50;;;;;;5070799;28;20073;-61
2021/04/06 01:15:53;;;;;;;5.70;1.25;;;14.70;96.50;;;;;;5074478;28;20025;-60
2021/04/06 01:18:20;;;;;;;7.60;1.42;;;14.70;96.60;;;;;;5074068;28;20366;-60
2021/04/06 01:20:46;;;;;;;5.20;1.50;;;14.70;96.60;;;;;;5074332;28;20473;-60
2021/04/06 01:23:15;;;;;;;4.28;1.50;;;14.70;96.60;;;;;;5056783;28;20033;-61
2021/04/06 01:25:55;;;;;;;2.45;1.15;;;14.70;96.70;;;;;;5054601;28;20029;-60
2021/04/06 01:28:29;;;;;;;4.70;1.58;;;14.60;96.50;;;;;;5054319;28;20039;-61
2021/04/06 01:30:55;;;;;;;;;;;14.70;96.90;;;;;;5054683;28;20018;-61
2021/04/06 01:33:27;;;;;;;4.50;1.60;;;14.60;96.80;;;;;;5065468;28;20344;-61
2021/04/06 01:35:55;;;;;;;5.00;1.63;;;14.60;96.80;;;;;;5053809;28;20029;-61
2021/04/06 01:38:27;;;;;;;5.28;1.25;;;14.60;97.00;;;;;;5054054;28;20063;-61
2021/04/06 01:40:55;;;;;;;3.10;1.20;;;14.60;97.30;;;;;;5054109;28;20121;-61
2021/04/06 01:43:23;;;;;;;5.13;1.40;;;14.60;97.20;;;;;;5069652;28;20542;-61
2021/04/06 01:45:53;;;;;;;2.85;1.30;;;14.60;97.10;;;;;;5068811;28;20040;-60
2021/04/06 01:48:19;;;;;;;5.03;1.73;;;14.60;97.00;;;;;;5071856;28;20091;-60
2021/04/06 01:50:50;;;;;;;3.67;1.20;;;14.50;97.00;;;;;;5070506;28;20488;-60
2021/04/06 01:53:17;;;;;;;3.67;1.40;;;14.50;97.50;;;;;;5053664;28;20086;-60
2021/04/06 01:55:55;;;;;;;4.50;1.33;;;14.60;97.30;;;;;;5055078;28;20036;-61
2021/04/06 01:58:23;;;;;;;4.47;1.15;;;14.50;97.80;;;;;;5069450;28;20039;-60
2021/04/06 02:03:22;;;;;;;5.05;1.35;;;14.50;97.40;;;;;;5058919;28;20017;-59
2021/04/06 02:05:48;;;;;;;4.97;1.30;;;14.50;97.40;;;;;;5066190;28;20071;-61
2021/04/06 02:08:18;;;;;;;3.70;1.15;;;14.50;97.20;;;;;;5060049;28;20025;-59
2021/04/06 02:10:44;;;;;;;2.50;1.00;;;14.50;97.40;;;;;;5073369;28;20064;-60
2021/04/06 02:13:14;;;;;;;3.33;1.27;;;14.50;97.50;;;;;;5073108;28;20025;-60
2021/04/06 02:16:01;;;;;;;3.20;1.02;;;14.50;97.40;;;;;;5065172;28;20029;-60
2021/04/06 02:18:28;;;;;;;3.00;1.30;;;14.50;97.50;;;;;;5053342;28;20025;-61
2021/04/06 02:20:59;;;;;;;4.47;1.08;;;14.50;97.50;;;;;;5053104;28;20029;-59
2021/04/06 02:23:27;;;;;;;4.55;1.15;;;14.50;97.40;;;;;;5055087;28;20160;-60
2021/04/06 02:25:55;;;;;;;5.18;1.30;;;14.40;97.10;;;;;;5062243;28;20087;-60
2021/04/06 02:28:22;;;;;;;4.30;1.60;;;14.40;97.20;;;;;;5052940;28;20048;-60
2021/04/06 02:30:56;;;;;;;3.72;1.30;;;14.40;97.00;;;;;;5054945;28;20070;-60
2021/04/06 02:33:27;;;;;;;3.95;1.08;;;14.40;97.30;;;;;;5066702;28;20354;-60
2021/04/06 02:35:57;;;;;;;6.40;1.30;;;14.40;97.40;;;;;;5061422;28;20036;-60
2021/04/06 02:38:23;;;;;;;6.57;1.20;;;14.40;97.30;;;;;;5070493;28;20046;-61
2021/04/06 02:40:49;;;;;;;5.90;1.63;;;14.40;97.00;;;;;;5053955;28;20103;-59
2021/04/06 02:43:14;;;;;;;3.20;1.13;;;14.30;97.10;;;;;;5072978;28;20035;-60
2021/04/06 02:45:40;;;;;;;3.05;1.40;;;14.40;97.00;;;;;;5071009;28;20094;-59
2021/04/06 02:48:12;;;;;;;2.55;1.15;;;14.30;96.60;;;;;;5072631;28;20421;-60
2021/04/06 02:50:42;;;;;;;3.40;1.20;;;14.30;96.70;;;;;;5072380;28;20040;-60
2021/04/06 02:53:10;;;;;;;4.05;1.27;;;14.30;96.90;;;;;;5054311;28;20059;-59
2021/04/06 02:55:36;;;;;;;3.75;1.02;;;14.30;96.40;;;;;;5058844;28;20028;-60
2021/04/06 02:58:12;;;;;;;2.40;1.13;;;14.20;96.50;;;;;;5064758;28;20025;-60
2021/04/06 03:00:38;;;;;;;3.95;1.10;;;14.20;96.70;;;;;;5066829;28;20438;-60
2021/04/06 03:03:18;;;;;;;2.22;0.90;;;14.20;96.40;;;;;;5066514;28;20032;-60
2021/04/06 03:05:44;;;;;;;3.90;1.20;;;14.20;96.30;;;;;;5063839;28;20021;-60
2021/04/06 03:08:10;;;;;;;2.63;1.05;;;14.20;96.50;;;;;;5052380;28;20020;-59
2021/04/06 03:10:36;;;;;;;2.72;0.90;;;14.20;96.30;;;;;;5052320;28;20579;-60
2021/04/06 03:13:10;;;;;;;2.80;1.02;;;14.20;96.50;;;;;;5052116;28;20071;-60
2021/04/06 03:15:46;;;;;;;2.55;1.10;;;14.20;96.10;;;;;;5057152;28;20485;-60
2021/04/06 03:18:12;;;;;;;3.83;1.10;;;14.20;96.60;;;;;;5052285;28;20469;-60
2021/04/06 03:20:39;;;;;;;4.43;1.35;;;14.20;96.70;;;;;;5052205;28;20063;-61
2021/04/06 03:23:06;;;;;;;3.10;1.23;;;14.20;96.60;;;;;;5052133;28;20032;-60
2021/04/06 03:25:36;;;;;;;2.55;1.10;;;14.20;97.00;;;;;;5056223;28;20033;-60
2021/04/06 03:28:10;;;;;;;3.60;1.05;;;14.20;96.90;;;;;;5058244;28;20153;-60
2021/04/06 03:30:36;;;;;;;3.05;1.08;;;14.20;96.70;;;;;;5071968;28;20070;-60
2021/04/06 03:33:04;;;;;;;2.65;0.90;;;14.20;97.00;;;;;;5066801;28;20100;-60
2021/04/06 03:35:31;;;;;;;3.75;1.20;;;14.20;97.00;;;;;;5056400;28;20032;-60
2021/04/06 03:37:58;;;;;;;3.42;1.20;;;14.10;97.10;;;;;;5071744;28;20040;-61
2021/04/06 03:40:24;;;;;;;2.90;0.93;;;14.20;97.90;;;;;;5071933;28;20021;-60
2021/04/06 03:42:49;;;;;;;4.13;1.52;;;14.20;97.90;;;;;;5057806;28;20064;-60
2021/04/06 03:45:16;;;;;;;6.60;1.23;;;14.20;97.70;;;;;;5054373;28;20428;-60
2021/04/06 03:47:58;;;;;;;3.95;1.50;;;14.10;97.20;;;;;;5071756;28;20033;-60
2021/04/06 03:50:41;;;;;;;9.52;1.30;;;14.10;97.80;;;;;;5071873;28;20032;-60
2021/04/06 03:53:09;;;;;;;6.45;1.00;;;14.10;97.40;;;;;;5071480;28;20358;-61
2021/04/06 03:55:39;;;;;;;3.72;1.05;;;14.10;97.30;;;;;;5066417;28;20021;-60
2021/04/06 03:58:13;;;;;;;5.38;1.30;;;14.10;97.30;;;;;;5052264;28;20043;-59
2021/04/06 04:00:40;;;;;;;4.38;1.10;;;14.10;97.20;;;;;;5056464;28;20036;-59
2021/04/06 04:03:06;;;;;;;5.68;1.33;;;14.10;97.10;;;;;;5057500;28;20147;-59
2021/04/06 04:05:33;;;;;;;6.22;1.50;;;14.10;97.00;;;;;;5071120;28;20544;-59
2021/04/06 04:07:59;;;;;;;2.17;1.13;;;14.10;96.90;;;;;;5068897;28;20036;-59
2021/04/06 04:10:25;;;;;;;3.47;1.20;;;14.10;96.90;;;;;;5059965;28;20389;-61
2021/04/06 04:12:51;;;;;;;4.10;1.33;;;14.10;97.10;;;;;;5070300;28;20029;-60
2021/04/06 04:15:17;;;;;;;3.17;1.00;;;14.00;97.20;;;;;;5051778;28;20048;-59
2021/04/06 04:17:50;;;;;;;6.53;0.98;;;14.00;97.30;;;;;;5051523;28;20370;-60
2021/04/06 04:20:18;;;;;;;3.45;1.20;;;14.00;97.30;;;;;;5060666;28;20112;-60
2021/04/06 04:22:44;;;;;;;3.08;1.00;;;14.10;96.80;;;;;;5054297;28;20033;-59
2021/04/06 04:25:12;;;;;;;4.15;1.15;;;14.00;96.90;;;;;;5059521;28;20063;-59
2021/04/06 04:27:39;;;;;;;6.22;1.17;;;14.00;96.70;;;;;;5051482;28;20453;-59
2021/04/06 04:30:05;;;;;;;3.75;1.10;;;14.00;96.70;;;;;;5063911;28;20494;-60
2021/04/06 04:32:31;;;;;;;2.40;1.15;;;14.00;96.70;;;;;;5070466;28;20463;-60
2021/04/06 04:34:56;;;;;;;3.45;1.08;;;14.00;96.70;;;;;;5057962;28;20032;-60
2021/04/06 04:37:22;;;;;;;4.05;1.10;;;14.00;96.70;;;;;;5051516;28;20029;-60
2021/04/06 04:39:47;;;;;;;1.73;0.85;;;14.00;96.70;;;;;;5051762;28;20078;-59
2021/04/06 04:42:13;;;;;;;6.38;1.15;;;14.00;96.60;;;;;;5057642;28;20032;-59
2021/04/06 04:44:39;;;;;;;2.40;0.88;;;14.00;96.50;;;;;;5068624;28;20023;-60
2021/04/06 04:47:05;;;;;;;3.13;0.80;;;14.00;96.60;;;;;;5071237;28;20040;-59
2021/04/06 04:49:31;;;;;;;2.58;1.00;;;14.00;96.60;;;;;;5064110;28;20392;-60
2021/04/06 04:51:57;;;;;;;3.33;1.15;;;14.00;96.50;;;;;;5055007;28;20033;-60
2021/04/06 04:54:22;;;;;;;3.05;1.02;;;14.00;96.50;;;;;;5054983;28;20117;-60
2021/04/06 04:56:48;;;;;;;2.42;1.10;;;14.00;96.40;;;;;;5059845;28;20029;-60
2021/04/06 04:59:13;;;;;;;2.63;0.93;;;14.00;96.50;;;;;;5060403;28;20036;-60
2021/04/06 05:01:39;;;;;;;2.95;0.80;;;14.00;96.10;;;;;;5071699;28;20028;-60
2021/04/06 05:04:05;;;;;;;3.05;1.20;;;14.00;96.50;;;;;;5055027;28;20029;-60
2021/04/06 05:06:30;;;;;;;3.33;0.90;;;14.00;97.00;;;;;;5054793;28;20099;-60
2021/04/06 05:08:56;;;;;;;2.83;0.95;;;14.00;96.60;;;;;;5060567;28;20021;-60
2021/04/06 05:11:22;;;;;;;7.00;1.00;;;14.00;96.60;;;;;;5061700;28;20473;-59
2021/04/06 05:13:48;;;;;;;2.97;1.00;;;14.00;96.80;;;;;;5062518;28;20031;-60
2021/04/06 05:16:13;;;;;;;1.95;0.90;;;14.00;96.80;;;;;;5074382;28;20029;-59
2021/04/06 05:18:39;;;;;;;3.92;1.05;;;14.00;96.80;;;;;;5073669;28;20077;-60
2021/04/06 05:21:05;;;;;;;2.50;0.90;;;14.00;96.70;;;;;;5074612;28;20476;-60
2021/04/06 05:23:31;;;;;;;2.92;1.42;;;14.00;96.50;;;;;;5065551;28;20499;-59
2021/04/06 05:25:57;;;;;;;3.92;1.20;;;14.00;96.90;;;;;;5067557;28;20044;-59
2021/04/06 05:28:23;;;;;;;2.05;0.90;;;14.00;96.90;;;;;;5054591;28;20055;-60
2021/04/06 05:30:48;;;;;;;2.95;0.90;;;14.00;96.80;;;;;;5059378;28;20427;-59
2021/04/06 05:33:14;;;;;;;2.40;0.88;;;14.00;97.00;;;;;;5054197;28;20028;-60
2021/04/06 05:35:40;;;;;;;3.60;0.90;;;14.00;96.90;;;;;;5054162;28;20024;-60
2021/04/06 05:38:05;;;;;;;2.38;0.98;;;13.90;96.90;;;;;;5054018;28;20075;-60
2021/04/06 05:40:31;;;;;;;2.15;0.80;;;14.00;97.00;;;;;;5066658;28;20350;-60
2021/04/06 05:43:02;;;;;;;2.72;1.00;;;14.00;97.00;;;;;;5072299;28;20024;-60
2021/04/06 05:45:31;;;;;;;5.35;0.85;;;14.00;97.00;;;;;;5073856;28;20038;-60
2021/04/06 05:47:58;;;;;;;3.83;0.98;;;14.00;96.70;;;;;;5071467;28;20107;-60
2021/04/06 05:50:24;;;;;;;2.72;1.00;;;14.00;97.10;;;;;;5065131;28;20037;-60
2021/04/06 05:52:50;;;;;;;3.00;1.20;;;13.90;97.30;;;;;;5072645;28;20104;-60
2021/04/06 05:55:16;;;;;;;6.88;1.50;;;14.00;97.80;;;;;;5054810;28;20359;-60
2021/04/06 05:57:42;;;;;;;5.22;1.08;;;14.00;97.50;;;;;;5073012;28;20086;-64
2021/04/06 06:00:09;;;;;;;4.65;1.00;;;14.10;98.90;;;;;;5064929;28;20380;-60
2021/04/06 06:02:38;;;;;;;5.20;1.30;;;14.00;97.30;;;;;;5053693;28;20504;-63
2021/04/06 06:05:05;;;;;;;3.30;1.05;;;13.90;93.50;;;;;;5053171;28;20104;-61
2021/04/06 06:07:31;;;;;;;10.43;1.27;;;13.90;92.70;;;;;;5053336;28;20041;-60
2021/04/06 06:09:56;;;;;;;5.82;1.60;;;13.70;91.90;;;;;;5064654;28;20032;-61
2021/04/06 06:12:22;;;;;;;8.15;1.83;;;13.40;90.20;;;;;;5053616;28;20033;-60
2021/04/06 06:14:51;;;;;;;9.85;1.90;;;13.10;88.70;;;;;;5070417;28;20040;-60
2021/04/06 06:17:27;;;;;;;8.95;1.95;;;12.90;86.90;;;;;;5073323;28;20024;-59
2021/04/06 06:19:58;;;;;;;6.70;1.52;;;12.80;86.00;;;;;;5061350;28;20036;-60
2021/04/06 06:22:30;;;;;;;5.07;1.27;;;12.80;87.60;;;;;;5053639;28;20088;-61
2021/04/06 06:25:12;;;;;;;5.40;1.00;;;13.10;88.60;;;;;;5056523;28;20057;-62
2021/04/06 06:27:45;;;;;;;3.42;1.10;;;13.50;87.10;;;;;;5053300;28;20033;-61
2021/04/06 06:30:32;;;;;;;2.95;1.20;;;13.70;86.10;;;;;;5056003;28;20033;-61
2021/04/06 06:33:23;;;;;;;3.47;1.00;;;13.90;85.20;;;;;;5054151;28;20029;-62
2021/04/06 06:36:09;;;;;;;2.55;0.93;;;14.00;84.70;;;;;;5062766;28;20158;-60
2021/04/06 06:38:42;;;;;;;2.75;1.10;;;14.10;84.30;;;;;;5066172;28;20021;-60
2021/04/06 06:41:20;;;;;;;2.55;0.90;;;14.10;84.40;;;;;;5052797;28;20028;-60
2021/04/06 06:43:54;;;;;;;3.15;1.10;;;14.10;84.10;;;;;;5053806;28;20037;-61
2021/04/06 06:46:21;;;;;;;1.80;0.85;;;14.20;83.80;;;;;;5064136;28;20032;-61
2021/04/06 06:49:02;;;;;;;3.42;1.00;;;14.20;83.80;;;;;;5063766;28;20040;-60
2021/04/06 06:51:31;;;;;;;4.47;1.13;;;14.30;84.70;;;;;;5066342;28;20032;-61
2021/04/06 06:53:57;;;;;;;6.35;1.38;;;14.30;85.10;;;;;;5054449;28;20082;-60
2021/04/06 06:56:40;;;;;;;4.78;1.10;;;14.60;87.30;;;;;;5061976;28;20060;-59
2021/04/06 06:59:07;;;;;;;5.40;1.42;;;15.70;84.50;;;;;;5071768;28;20028;-59
2021/04/06 07:01:35;;;;;;;4.47;1.20;;;16.70;83.00;;;;;;5071033;28;20412;-59
2021/04/06 07:04:12;;;;;;;5.93;1.35;;;17.50;80.70;;;;;;5071090;28;20036;-60
2021/04/06 07:06:45;;;;;;;6.53;1.38;;;18.20;79.50;;;;;;5071039;28;20040;-60
2021/04/06 07:09:37;;;;;;;7.25;1.10;;;18.80;78.90;;;;;;5071878;28;20067;-61
2021/04/06 07:12:03;;;;;;;7.25;1.20;;;19.30;78.40;;;;;;5055034;28;20481;-61
2021/04/06 07:14:31;;;;;;;8.55;1.10;;;19.70;78.00;;;;;;5069461;28;20451;-60
2021/04/06 07:16:59;;;;;;;3.92;1.27;;;19.90;77.40;;;;;;5066412;28;20056;-61
2021/04/06 07:19:25;;;;;;;3.03;1.00;;;20.30;77.10;;;;;;5061008;28;20388;-61
2021/04/06 07:21:57;;;;;;;5.38;1.27;;;20.60;76.90;;;;;;5072103;28;20033;-61
2021/04/06 07:24:37;;;;;;;3.88;1.02;;;20.90;76.90;;;;;;5072183;28;20047;-61
2021/04/06 07:27:08;;;;;;;2.85;1.13;;;21.20;77.40;;;;;;5060178;28;20136;-61
2021/04/06 07:29:35;;;;;;;2.78;1.00;;;21.50;76.40;;;;;;5051952;28;20028;-60
2021/04/06 07:32:02;;;;;;;4.20;1.20;;;21.80;76.10;;;;;;5052130;28;20477;-61
2021/04/06 07:34:29;;;;;;;2.85;1.13;;;22.10;75.80;;;;;;5052230;28;20025;-61
2021/04/06 07:36:55;;;;;;;3.40;0.98;;;22.30;75.60;;;;;;5052186;28;20037;-61
2021/04/06 07:39:24;;;;;;;2.08;0.88;;;22.50;75.50;;;;;;5051834;28;20036;-61
2021/04/06 07:41:50;;;;;;;2.20;1.00;;;22.70;75.40;;;;;;5051975;28;20107;-60
2021/04/06 07:44:16;;;;;;;3.13;0.93;;;21.90;78.20;;;;;;5051887;28;20358;-61
2021/04/06 07:46:45;;;;;;;3.42;1.05;;;22.10;77.50;;;;;;5056315;28;20032;-59
2021/04/06 07:49:17;;;;;;;4.60;1.30;;;22.60;76.70;;;;;;5071740;28;20112;-59
2021/04/06 07:51:45;;;;;;;2.60;1.05;;;22.70;76.60;;;;;;5071801;28;20102;-60
2021/04/06 07:54:34;;;;;;;2.78;1.10;;;22.00;78.50;;;;;;5071855;28;20029;-59
2021/04/06 07:57:02;;;;;;;3.45;1.00;;;22.40;77.90;;;;;;5066533;28;20040;-61
2021/04/06 07:59:27;;;;;;;4.28;1.10;;;22.80;77.40;;;;;;5069979;28;20075;-61
2021/04/06 08:01:56;;;;;;;2.90;1.23;;;22.00;79.90;;;;;;5071794;28;20036;-61
2021/04/06 08:04:47;;;;;;;3.85;0.80;;;22.30;78.70;;;;;;5071768;28;20025;-61
2021/04/06 08:07:22;;;;;;;3.30;1.00;;;22.80;77.80;;;;;;5066247;28;20041;-62
2021/04/06 08:09:56;;;;;;;2.83;0.70;;;22.00;80.80;;;;;;5054823;28;20037;-59
2021/04/06 08:12:34;;;;;;;;;;;22.30;79.30;;;;;;5057130;28;20104;-60
2021/04/06 08:15:12;;;;;;;3.10;0.93;;;22.80;78.30;;;;;;5071087;28;19908;-60
2021/04/06 08:17:41;;;;;;;3.10;0.90;;;22.00;80.70;;;;;;5052879;28;20136;-59
2021/04/06 08:20:28;;;;;;;3.25;0.77;;;22.40;80.20;;;;;;5051261;28;20065;-62
2021/04/06 08:23:00;;;;;;;3.15;0.90;;;22.70;79.90;;;;;;5051531;28;20029;-63
2021/04/06 08:25:29;;;;;;;3.47;1.10;;;22.10;82.10;;;;;;5055076;28;20029;-61
2021/04/06 08:28:24;;;;;;;4.63;1.10;;;22.30;81.60;;;;;;5055441;28;20182;-63
2021/04/06 08:30:50;;;;;;;2.35;0.90;;;22.90;80.90;;;;;;5049689;28;20108;-61
2021/04/06 08:33:16;;;;;;;3.28;1.10;;;22.40;83.80;;;;;;5055320;28;20448;-61
2021/04/06 08:35:48;;;;;;;3.03;1.00;;;22.00;83.40;;;;;;5075320;28;20032;-61
2021/04/06 08:38:23;;;;;;;3.10;0.80;;;21.70;84.80;;;;;;5074806;28;20032;-60
2021/04/06 08:40:49;;;;;;;4.00;1.00;;;21.40;85.70;;;;;;5075160;28;20052;-60
2021/04/06 08:43:26;;;;;;;4.68;1.00;;;21.10;86.50;;;;;;5074837;28;20028;-61
2021/04/06 08:45:56;;;;;;;3.33;1.08;;;20.80;87.30;;;;;;5074488;28;20572;-61
2021/04/06 08:48:47;;;;;;;5.43;1.30;;;20.60;88.90;;;;;;5062766;28;20029;-60
2021/04/06 08:51:24;;;;;;;3.85;1.35;;;20.20;80.60;;;;;;5074190;28;20086;-60
2021/04/06 08:53:55;;;;;;;4.15;1.30;;;19.90;83.10;;;;;;5074998;28;20473;-60
2021/04/06 08:56:26;;;;;;;3.75;1.40;;;19.90;84.30;;;;;;5075011;28;20032;-60
2021/04/06 08:58:52;;;;;;;4.78;1.30;;;19.90;85.30;;;;;;5074720;28;20469;-61
2021/04/06 09:01:20;;;;;;;3.00;1.10;;;19.80;85.90;;;;;;5074818;28;20071;-59
2021/04/06 09:03:46;;;;;;;3.40;0.93;;;19.80;86.50;;;;;;5074550;28;20099;-60
2021/04/06 09:06:13;;;;;;;4.63;1.77;;;19.80;86.40;;;;;;5074732;28;20552;-59
2021/04/06 09:08:54;;;;;;;2.63;1.02;;;19.80;86.80;;;;;;5074629;28;20418;-60
2021/04/06 09:11:23;;;;;;;6.05;1.00;;;19.70;87.30;;;;;;5067262;28;20204;-60
2021/04/06 09:13:51;;;;;;;2.75;1.30;;;19.60;87.40;;;;;;5054583;28;20370;-60
2021/04/06 09:16:24;;;;;;;4.97;1.15;;;19.60;87.50;;;;;;5057452;28;20525;-60
2021/04/06 09:19:03;;;;;;;4.25;1.20;;;19.50;87.60;;;;;;5065874;28;20473;-60
2021/04/06 09:21:31;;;;;;;4.53;1.02;;;19.50;87.70;;;;;;5054446;28;20029;-60
2021/04/06 09:24:01;;;;;;;3.38;1.30;;;19.50;87.90;;;;;;5073693;28;20036;-60
2021/04/06 09:26:27;;;;;;;5.13;1.30;;;19.50;88.40;;;;;;5074222;28;20483;-61
2021/04/06 09:29:13;;;;;;;3.03;1.23;;;19.50;88.60;;;;;;5074268;28;20036;-61
2021/04/06 09:31:50;;;;;;;3.95;1.08;;;19.40;88.80;;;;;;5074446;28;20071;-60
2021/04/06 09:34:20;;;;;;;3.65;1.20;;;19.40;88.90;;;;;;5074021;28;20091;-61
2021/04/06 09:36:52;;;;;;;4.35;1.05;;;19.30;88.80;;;;;;5074295;28;20035;-60
2021/04/06 09:39:18;;;;;;;3.25;1.00;;;19.20;89.20;;;;;;5074133;28;20035;-61
2021/04/06 09:41:44;;;;;;;3.47;1.13;;;19.20;89.00;;;;;;5074012;28;20024;-60
2021/04/06 09:44:20;;;;;;;4.07;1.30;;;19.20;89.30;;;;;;5074157;28;20034;-61
2021/04/06 09:46:52;;;;;;;2.35;0.90;;;19.20;88.90;;;;;;5072974;28;20028;-61
2021/04/06 09:49:18;;;;;;;2.47;1.00;;;19.30;89.80;;;;;;5073381;28;20013;-60
2021/04/06 09:51:50;;;;;;;2.85;0.88;;;19.20;89.60;;;;;;5073589;28;20489;-61
2021/04/06 09:54:36;;;;;;;2.85;1.00;;;19.20;90.30;;;;;;5071028;28;20060;-61
2021/04/06 09:57:09;;;;;;;3.47;1.02;;;19.20;90.40;;;;;;5053919;28;20036;-61
2021/04/06 09:59:35;;;;;;;3.33;1.07;;;19.20;90.50;;;;;;5054993;28;20025;-61
2021/04/06 10:02:02;;;;;;;2.15;0.80;;;19.20;90.60;;;;;;5053633;28;20025;-61
2021/04/06 10:04:38;;;;;;;2.63;1.00;;;19.20;90.90;;;;;;5053770;28;20031;-61
2021/04/06 10:07:14;;;;;;;4.90;1.10;;;19.20;91.10;;;;;;5053525;28;20041;-61
2021/04/06 10:10:07;;;;;;;4.50;1.23;;;19.20;91.20;;;;;;5053903;28;20123;-61
2021/04/06 10:12:33;;;;;;;4.57;1.23;;;19.20;91.40;;;;;;5072143;28;20039;-61
2021/04/06 10:15:00;;;;;;;2.17;0.85;;;19.10;91.20;;;;;;5073194;28;20025;-61
2021/04/06 10:17:38;;;;;;;2.55;0.90;;;19.20;91.10;;;;;;5071132;28;20031;-62
2021/04/06 10:20:08;;;;;;;2.15;0.90;;;19.20;91.10;;;;;;5072801;28;20028;-61
2021/04/06 10:22:51;;;;;;;1.75;0.65;;;19.10;91.20;;;;;;5073328;28;20107;-61
2021/04/06 10:25:26;;;;;;;2.58;1.00;;;19.20;91.20;;;;;;5073309;28;20366;-62
2021/04/06 10:27:57;;;;;;;2.35;0.90;;;19.20;91.30;;;;;;5073374;28;20086;-61
2021/04/06 10:30:34;;;;;;;2.78;0.90;;;19.20;91.70;;;;;;5071857;28;20024;-61
2021/04/06 10:33:13;;;;;;;1.95;0.80;;;19.30;91.70;;;;;;5073106;28;20027;-61
2021/04/06 10:35:53;;;;;;;2.58;1.08;;;19.30;91.30;;;;;;5073285;28;20025;-61
2021/04/06 10:38:24;;;;;;;2.10;0.93;;;19.30;91.40;;;;;;5071805;28;20372;-61
2021/04/06 10:41:04;;;;;;;3.38;1.13;;;19.30;91.60;;;;;;5054604;28;20044;-61
2021/04/06 10:43:30;;;;;;;4.43;1.10;;;19.30;88.30;;;;;;5053013;28;20078;-61
2021/04/06 10:46:17;;;;;;;3.17;0.77;;;19.30;83.90;;;;;;5067784;28;20023;-61
2021/04/06 10:49:03;;;;;;;2.05;0.90;;;19.30;83.40;;;;;;5068543;28;20120;-61
2021/04/06 10:51:30;;;;;;;2.00;0.70;;;19.30;80.60;;;;;;5070507;28;20028;-59
2021/04/06 10:53:59;;;;;;;3.17;0.85;;;19.40;80.10;;;;;;5068725;28;20024;-59
2021/04/06 10:56:39;;;;;;;2.03;0.77;;;19.40;78.40;;;;;;5071166;28;20028;-60
2021/04/06 10:59:08;;;;;;;3.13;0.70;;;19.50;77.80;;;;;;5071182;28;20020;-60
2021/04/06 11:01:43;;;;;;;1.65;0.60;;;19.50;77.60;;;;;;5071245;28;20479;-60
2021/04/06 11:04:36;;;;;;;1.58;0.60;;;19.50;76.80;;;;;;5069652;28;20028;-61
2021/04/06 11:07:04;;;;;;;2.60;0.60;;;19.50;76.90;;;;;;5066202;28;20043;-60
2021/04/06 11:09:35;;;;;;;1.17;0.55;;;19.50;77.40;;;;;;5067522;28;20369;-61
2021/04/06 11:12:01;;;;;;;2.88;0.90;;;19.50;76.20;;;;;;5068216;28;20028;-60
2021/04/06 11:14:28;;;;;;;1.98;0.70;;;19.50;75.90;;;;;;5070873;28;20017;-61
2021/04/06 11:16:55;;;;;;;1.58;0.50;;;19.60;75.50;;;;;;5066929;28;20020;-62
2021/04/06 11:19:28;;;;;;;1.48;0.70;;;19.60;75.20;;;;;;5062489;28;20127;-61
2021/04/06 11:21:55;;;;;;;;;;;19.70;74.70;;;;;;5062517;28;20377;-62
2021/04/06 11:24:25;;;;;;;2.08;0.85;;;19.80;74.40;;;;;;5068835;28;19913;-61
2021/04/06 11:26:51;;;;;;;1.70;0.70;;;19.80;74.20;;;;;;5072124;28;20040;-60
2021/04/06 11:29:22;;;;;;;2.75;0.82;;;19.90;74.10;;;;;;5066625;28;20017;-60
2021/04/06 11:31:50;;;;;;;1.92;0.68;;;20.00;74.20;;;;;;5059563;28;20435;-61
2021/04/06 11:34:17;;;;;;;2.25;0.95;;;19.90;74.30;;;;;;5068632;28;20031;-60
2021/04/06 11:36:44;;;;;;;1.85;0.70;;;20.00;73.90;;;;;;5071052;28;20430;-60
2021/04/06 11:39:12;;;;;;;3.63;0.60;;;20.10;73.80;;;;;;5071893;28;20013;-62
2021/04/06 11:41:38;;;;;;;1.83;0.70;;;20.20;73.90;;;;;;5069317;28;20111;-60
2021/04/06 11:44:04;;;;;;;1.02;0.52;;;20.20;73.80;;;;;;5070987;28;20115;-60
2021/04/06 11:46:32;;;;;;;1.20;0.40;;;20.20;74.00;;;;;;5070609;28;20108;-61
2021/04/06 11:48:57;;;;;;;1.45;0.60;;;20.20;74.10;;;;;;5070666;28;20388;-61
2021/04/06 11:51:23;;;;;;;2.22;0.90;;;20.10;74.30;;;;;;5068283;28;20028;-60
2021/04/06 11:53:49;;;;;;;2.10;0.60;;;19.90;74.30;;;;;;5068452;28;20052;-60
2021/04/06 11:56:15;;;;;;;2.30;0.70;;;19.90;74.40;;;;;;5059136;28;20113;-60
2021/04/06 11:58:40;;;;;;;2.30;0.70;;;19.80;74.70;;;;;;5070621;28;20039;-62
2021/04/06 12:01:06;;;;;;;2.53;0.63;;;19.80;76.80;;;;;;5063625;28;20443;-60
2021/04/06 12:03:32;;;;;;;1.70;0.50;;;19.80;76.90;;;;;;5066041;28;20143;-61
2021/04/06 12:05:57;;;;;;;2.85;0.68;;;19.80;77.00;;;;;;5076670;28;20036;-62
2021/04/06 12:08:23;;;;;;;1.73;0.73;;;19.90;76.80;;;;;;5078343;28;20024;-62
2021/04/06 12:10:49;;;;;;;1.00;0.52;;;19.80;76.70;;;;;;5077379;28;20032;-62
2021/04/06 12:13:15;;;;;;;1.35;0.60;;;19.80;76.30;;;;;;5078422;28;20025;-62
2021/04/06 12:15:40;;;;;;;1.05;0.60;;;19.90;76.40;;;;;;5077831;28;20024;-60
2021/04/06 12:18:06;;;;;;;1.52;0.63;;;19.90;76.60;;;;;;5078429;28;20388;-61
2021/04/06 12:20:33;;;;;;;1.77;0.65;;;19.80;76.50;;;;;;5078286;28;20020;-60
2021/04/06 12:22:59;;;;;;;1.10;0.43;;;19.80;76.40;;;;;;5078299;28;20499;-60
2021/04/06 12:25:25;;;;;;;1.17;0.55;;;19.90;76.40;;;;;;5077355;28;20052;-61
2021/04/06 12:27:50;;;;;;;2.10;0.60;;;19.80;76.20;;;;;;5078223;28;20032;-60
2021/04/06 12:30:17;;;;;;;2.53;0.60;;;19.80;76.90;;;;;;5077307;28;20028;-61
2021/04/06 12:32:43;;;;;;;1.73;0.77;;;19.80;76.50;;;;;;5063963;28;20477;-60
2021/04/06 12:35:09;;;;;;;1.20;0.60;;;19.80;76.70;;;;;;5058189;28;20097;-61
2021/04/06 12:37:36;;;;;;;1.35;0.55;;;19.90;76.30;;;;;;5058143;28;20024;-59
2021/04/06 12:40:04;;;;;;;1.67;0.60;;;19.90;76.30;;;;;;5077283;28;20029;-60
2021/04/06 12:42:30;;;;;;;3.17;0.60;;;20.00;77.30;;;;;;5073297;28;20104;-60
2021/04/06 12:44:56;;;;;;;1.67;0.70;;;20.10;78.40;;;;;;5077249;28;20449;-59
2021/04/06 12:47:21;;;;;;;1.75;0.70;;;20.20;78.90;;;;;;5077928;28;20060;-60
2021/04/06 12:49:48;;;;;;;2.58;0.65;;;20.30;79.60;;;;;;5076343;28;20040;-60
2021/04/06 12:52:13;;;;;;;4.55;0.57;;;20.40;80.00;;;;;;5071385;28;20103;-60
2021/04/06 12:54:39;;;;;;;2.80;0.60;;;20.40;80.00;;;;;;5057980;28;20055;-60
2021/04/06 12:57:05;;;;;;;3.53;0.60;;;20.50;81.30;;;;;;5057859;28;20021;-61
2021/04/06 12:59:31;;;;;;;1.92;0.70;;;20.60;81.30;;;;;;5057924;28;20072;-60
2021/04/06 13:01:57;;;;;;;2.05;0.55;;;20.70;81.90;;;;;;5059914;28;20111;-61
2021/04/06 13:04:22;;;;;;;2.25;0.60;;;20.70;82.30;;;;;;5077953;28;20111;-61